Freeman, SD (57029)

6:22 AM CDT on September 03, 2015 (GMT -0500)
KSDFREEM4 | | Change Station
CLOSE
Current Station
Personal Weather Station
Location: FREEMAN, SD
Elevation: 1440 ft
Nearby Weather Stations

Elev 1440 ft 43.43 °N, 97.48 °W | Updated 2 minutes ago

Clear
Clear
67.9 °F
Feels Like 67.9 °F
N
9.0
Wind Variable Wind from SE
Gusts 10.0 mph

Today
High -- | Low -- °F
--% Chance of Precip.
Yesterday
High -- | Low -- °F
Precip. -- in
6:55 AM 8:01 PM
Waning Gibbous, 71% visible
Pressure 29.80 in
Visibility 8.0 miles
Clouds Clear
Dew Point 66 °F
Humidity 95%
Rainfall 0.00 in
Snow Depth Not available.
UV 0 out of 12
Pollen 11.10 out of 12
Air Quality Not available.
Flu Activity Not available.
METAR KYKN 031115Z AUTO 09006KT 8SM CLR 19/18 A2980 RMK AO1
Pressure 29.80 in
Visibility 8.0 miles
Clouds Clear
Dew Point 66 °F
Humidity 95%
Rainfall 0.00 in
Snow Depth Not available.
UV 0 out of 12
Pollen 11.10 out of 12
Air Quality Not available.
Flu Activity Not available.
METAR KYKN 031115Z AUTO 09006KT 8SM CLR 19/18 A2980 RMK AO1

10-Day Weather Forecast

×

Almanac

Astronomy

Sep. 03, 2015 Rise Set
Actual Time
Civil Twilight
Nautical Twilight
Astronomical Twilight
Moon
Length of Visible Light
Length of Day
Tomorrow will be .
, % of the Moon is Illuminated

Today's Extremes

State Highs State Lows

Community

WunderPhotos

Upload Photos

1,851,933 photos uploaded!

WunderBlogs® & News

Nearby

Air Quality

  Air Quality AQ Index Pollutant
Not available.

Snow Depth

Station Depth Elevation

Earthquake Activity

City Distance Mag. Time & Date
Minimum magnitude displayed is 2.5.

Coastal Water Temperatures

Place Temperature

Stations

Nearby Weather Stations

Station Location Temp. Windchill Dew Point Humidity Wind Precip. Elev Updated Type